Time;durP1;ratioP1;P1;durP2;ratioP2;P2;SDS_P1;SDS_P2;PMS_P1;PMS_P2;Temp;Humidity;BMP_temperature;BMP_pressure;BME280_temperature;BME280_humidity;BME280_pressure;Samples;Min_cycle;Max_cycle;Signal;HPM_P1;HPM_P2
2022/03/23 00:01:30;;;;;;;14.60;8.73;;;7.50;86.00;;;;;;5034138;28;20041;-74
2022/03/23 00:03:56;;;;;;;23.35;8.43;;;7.50;85.30;;;;;;5034156;28;20045;-76
2022/03/23 00:06:22;;;;;;;15.20;8.05;;;7.40;85.90;;;;;;5034617;28;20072;-75
2022/03/23 00:08:49;;;;;;;12.88;7.18;;;7.50;85.60;;;;;;5034577;28;20041;-76
2022/03/23 00:11:15;;;;;;;13.68;7.55;;;7.40;85.50;;;;;;5034379;28;20045;-74
2022/03/23 00:13:41;;;;;;;13.55;7.30;;;7.50;86.40;;;;;;5034224;28;20141;-77
2022/03/23 00:16:07;;;;;;;14.85;8.27;;;7.40;86.60;;;;;;5034332;28;20504;-72
2022/03/23 00:18:33;;;;;;;15.50;8.63;;;7.30;87.00;;;;;;5034237;28;20045;-77
2022/03/23 00:20:59;;;;;;;15.13;8.90;;;7.30;85.80;;;;;;5034229;28;20033;-77
2022/03/23 00:23:25;;;;;;;22.15;10.80;;;7.40;86.00;;;;;;5034115;28;20463;-76
2022/03/23 00:25:51;;;;;;;12.68;7.88;;;7.40;85.60;;;;;;5034116;28;20037;-76
2022/03/23 00:28:19;;;;;;;14.75;7.47;;;7.50;84.80;;;;;;5033894;28;20045;-76
2022/03/23 00:30:48;;;;;;;20.15;8.63;;;7.60;85.00;;;;;;5034115;28;20046;-77
2022/03/23 00:33:14;;;;;;;15.93;8.15;;;7.60;84.40;;;;;;5033930;28;20037;-72
2022/03/23 00:35:41;;;;;;;29.30;12.70;;;7.60;84.60;;;;;;5033658;28;20124;-77
2022/03/23 00:38:06;;;;;;;35.95;14.82;;;7.50;85.20;;;;;;5033738;28;20067;-72
2022/03/23 00:40:33;;;;;;;21.77;11.32;;;7.30;85.70;;;;;;5033651;28;20038;-77
2022/03/23 00:43:01;;;;;;;34.80;13.80;;;7.40;85.80;;;;;;5033495;28;20049;-76
2022/03/23 00:45:30;;;;;;;27.52;12.38;;;7.40;85.40;;;;;;5033507;28;20139;-72
2022/03/23 00:47:57;;;;;;;22.52;9.68;;;7.30;86.20;;;;;;5033442;28;20037;-77
2022/03/23 00:50:23;;;;;;;16.08;8.85;;;7.30;86.40;;;;;;5033406;28;20076;-76
2022/03/23 00:52:49;;;;;;;15.48;9.02;;;7.30;86.60;;;;;;5033252;28;20041;-76
2022/03/23 00:55:16;;;;;;;16.67;8.93;;;7.20;88.20;;;;;;5032859;28;20033;-73
2022/03/23 00:57:43;;;;;;;17.80;8.50;;;7.10;87.60;;;;;;5033403;28;20607;-75
2022/03/23 01:00:12;;;;;;;10.73;7.30;;;7.20;87.10;;;;;;5033509;28;20041;-75
2022/03/23 01:02:41;;;;;;;13.85;7.60;;;7.20;87.70;;;;;;5033118;28;20084;-75
2022/03/23 01:05:09;;;;;;;15.18;8.15;;;7.20;87.80;;;;;;5033420;28;20410;-75
2022/03/23 01:07:39;;;;;;;15.80;8.95;;;7.20;88.30;;;;;;5033413;28;20041;-72
2022/03/23 01:10:06;;;;;;;15.75;8.93;;;7.10;87.70;;;;;;5033177;28;20033;-75
2022/03/23 01:12:32;;;;;;;15.07;8.95;;;7.10;87.60;;;;;;5031459;28;20037;-75
2022/03/23 01:14:59;;;;;;;18.25;8.73;;;7.20;87.40;;;;;;5030744;28;20037;-75
2022/03/23 01:17:25;;;;;;;18.73;9.07;;;7.20;87.50;;;;;;5031457;28;20041;-75
2022/03/23 01:19:51;;;;;;;15.70;8.82;;;6.90;88.10;;;;;;5032481;28;20041;-75
2022/03/23 01:22:17;;;;;;;15.95;8.30;;;6.80;88.40;;;;;;5033166;28;20059;-75
2022/03/23 01:24:44;;;;;;;14.32;8.45;;;6.60;89.10;;;;;;5033015;28;20066;-77
2022/03/23 01:27:10;;;;;;;13.52;7.88;;;6.60;89.10;;;;;;5015307;28;20052;-77
2022/03/23 01:29:36;;;;;;;13.30;7.88;;;6.70;88.20;;;;;;5033050;28;20041;-77
2022/03/23 01:32:03;;;;;;;15.02;9.10;;;7.00;87.10;;;;;;5033173;28;20041;-77
2022/03/23 01:34:29;;;;;;;15.00;8.40;;;7.00;87.50;;;;;;5033127;28;20037;-77
2022/03/23 01:36:55;;;;;;;18.48;8.55;;;7.00;87.00;;;;;;5032767;28;20108;-75
2022/03/23 01:39:20;;;;;;;20.92;8.30;;;7.00;87.20;;;;;;5035343;28;20068;-77
2022/03/23 01:41:46;;;;;;;14.88;8.55;;;7.00;86.70;;;;;;5032642;28;20099;-72
2022/03/23 01:44:17;;;;;;;13.95;8.85;;;7.00;86.80;;;;;;5032747;28;20041;-77
2022/03/23 01:46:58;;;;;;;;;;;7.00;86.70;;;;;;5033246;28;20051;-74
2022/03/23 01:49:24;;;;;;;14.93;8.68;;;6.90;86.90;;;;;;5045805;28;20339;-76
2022/03/23 01:51:50;;;;;;;18.90;8.20;;;6.90;86.80;;;;;;5052714;28;20068;-77
2022/03/23 01:54:16;;;;;;;12.00;7.78;;;6.90;86.90;;;;;;5035078;28;20045;-77
2022/03/23 01:56:42;;;;;;;17.55;7.68;;;6.90;87.00;;;;;;5052706;28;20440;-75
2022/03/23 01:59:09;;;;;;;15.38;8.75;;;6.80;86.90;;;;;;5052657;28;20552;-77
2022/03/23 02:01:37;;;;;;;16.73;8.90;;;6.80;87.20;;;;;;5052382;28;20116;-76
2022/03/23 02:04:03;;;;;;;20.50;9.77;;;6.70;87.40;;;;;;5052270;28;20095;-76
2022/03/23 02:06:29;;;;;;;22.90;11.18;;;6.60;90.00;;;;;;5054519;28;20397;-77
2022/03/23 02:08:54;;;;;;;15.95;8.50;;;6.40;90.10;;;;;;5056515;28;20044;-77
2022/03/23 02:11:20;;;;;;;14.13;8.77;;;6.40;89.00;;;;;;5056182;28;20392;-76
2022/03/23 02:13:46;;;;;;;17.60;8.75;;;6.60;88.00;;;;;;5038383;28;20044;-77
2022/03/23 02:16:12;;;;;;;15.63;7.80;;;6.70;87.60;;;;;;5056512;28;20401;-77
2022/03/23 02:18:37;;;;;;;17.70;8.93;;;6.80;87.40;;;;;;5056448;28;20037;-77
2022/03/23 02:21:03;;;;;;;15.15;8.63;;;6.80;88.00;;;;;;5056398;28;20044;-77
2022/03/23 02:23:29;;;;;;;13.70;8.13;;;6.80;87.60;;;;;;5056062;28;20051;-74
2022/03/23 02:26:01;;;;;;;15.15;9.07;;;6.50;88.50;;;;;;5056190;28;20036;-72
2022/03/23 02:28:31;;;;;;;16.58;9.20;;;6.60;88.00;;;;;;5056111;28;20065;-76
2022/03/23 02:30:57;;;;;;;14.60;8.80;;;6.70;87.80;;;;;;5055992;28;20072;-72
2022/03/23 02:33:23;;;;;;;12.85;7.80;;;6.70;87.50;;;;;;5055762;28;20059;-77
2022/03/23 02:35:49;;;;;;;23.23;10.50;;;6.70;87.80;;;;;;5056112;28;20484;-75
2022/03/23 02:38:17;;;;;;;17.02;9.18;;;6.70;87.70;;;;;;5040069;28;20065;-77
2022/03/23 02:40:45;;;;;;;16.58;8.38;;;6.70;87.50;;;;;;5036091;28;20608;-70
2022/03/23 02:43:10;;;;;;;24.38;10.70;;;6.60;88.70;;;;;;5035806;28;20469;-71
2022/03/23 02:45:36;;;;;;;22.60;9.63;;;6.40;89.70;;;;;;5035840;28;20049;-72
2022/03/23 02:48:04;;;;;;;14.23;8.40;;;6.30;90.10;;;;;;5035692;28;20560;-77
2022/03/23 02:50:31;;;;;;;20.20;8.70;;;6.40;89.60;;;;;;5036019;28;20147;-77
2022/03/23 03:01:53;;;;;;;14.40;8.55;;;6.40;88.60;;;;;;5035719;28;20032;-76
2022/03/23 03:04:23;;;;;;;17.25;9.30;;;6.30;89.90;;;;;;5035583;28;20053;-75
2022/03/23 03:06:50;;;;;;;14.55;8.93;;;6.10;90.20;;;;;;5035432;28;20409;-77
2022/03/23 03:09:16;;;;;;;14.57;9.13;;;5.90;90.70;;;;;;5035416;28;20034;-71
2022/03/23 03:11:43;;;;;;;18.88;9.60;;;5.90;90.60;;;;;;5035644;28;20074;-76
2022/03/23 03:14:13;;;;;;;16.10;8.50;;;5.70;90.90;;;;;;5035516;28;20036;-75
2022/03/23 03:16:39;;;;;;;12.40;8.60;;;5.60;91.00;;;;;;5034945;28;20049;-77
2022/03/23 03:19:06;;;;;;;20.27;10.25;;;5.50;91.00;;;;;;5035463;28;20039;-77
2022/03/23 03:21:32;;;;;;;32.45;14.00;;;5.60;90.90;;;;;;5035035;28;20045;-76
2022/03/23 03:23:58;;;;;;;14.82;9.38;;;5.80;91.00;;;;;;5034921;28;20451;-76
2022/03/23 03:26:24;;;;;;;16.08;10.15;;;5.70;91.10;;;;;;5035081;28;20523;-76
2022/03/23 03:28:50;;;;;;;22.08;9.75;;;5.60;91.30;;;;;;5017439;28;20037;-77
2022/03/23 03:31:16;;;;;;;22.63;10.18;;;5.40;91.30;;;;;;5035254;28;20059;-76
2022/03/23 03:33:43;;;;;;;19.67;10.60;;;5.30;91.30;;;;;;5035163;28;20562;-76
2022/03/23 03:36:10;;;;;;;19.45;11.00;;;5.30;91.60;;;;;;5035197;28;20116;-76
2022/03/23 03:38:36;;;;;;;19.35;10.65;;;5.30;91.60;;;;;;5025660;28;20401;-77
2022/03/23 03:41:03;;;;;;;17.50;9.57;;;5.20;91.50;;;;;;5014269;28;20555;-76
2022/03/23 03:43:30;;;;;;;20.75;9.23;;;5.30;91.00;;;;;;5015181;28;20084;-76
2022/03/23 03:45:56;;;;;;;17.13;9.07;;;5.50;90.70;;;;;;5013650;28;20042;-77
2022/03/23 03:48:21;;;;;;;19.23;9.73;;;5.40;90.70;;;;;;5014598;28;20080;-77
2022/03/23 03:50:47;;;;;;;18.02;9.88;;;5.40;90.60;;;;;;5014650;28;20046;-71
2022/03/23 03:53:13;;;;;;;25.10;9.80;;;5.40;90.50;;;;;;5014636;28;20128;-76
2022/03/23 03:55:40;;;;;;;16.88;9.82;;;5.30;90.60;;;;;;5014805;28;20131;-77
2022/03/23 03:58:08;;;;;;;22.58;9.65;;;5.20;90.80;;;;;;5014830;28;20152;-76
2022/03/23 04:00:35;;;;;;;14.65;8.38;;;5.20;90.80;;;;;;5014810;28;20040;-76
2022/03/23 04:03:02;;;;;;;14.70;8.50;;;5.20;90.90;;;;;;5014492;28;20421;-71
2022/03/23 04:05:28;;;;;;;17.63;10.07;;;5.20;90.80;;;;;;5014642;28;20124;-73
2022/03/23 04:07:55;;;;;;;14.85;8.73;;;4.90;91.50;;;;;;5014850;28;20433;-75
2022/03/23 04:10:22;;;;;;;17.42;9.82;;;4.90;91.40;;;;;;5014679;28;20038;-76
2022/03/23 04:12:48;;;;;;;18.58;9.73;;;5.00;92.20;;;;;;5014682;28;20100;-76
2022/03/23 04:15:19;;;;;;;13.73;8.77;;;4.80;91.40;;;;;;5014507;28;20687;-76
2022/03/23 04:17:45;;;;;;;;;;;4.80;91.70;;;;;;5014948;28;20469;-77
2022/03/23 04:20:11;;;;;;;13.80;9.13;;;4.80;91.40;;;;;;4996685;28;20001;-77
2022/03/23 04:22:40;;;;;;;14.68;8.82;;;4.80;91.50;;;;;;5014436;28;20056;-77
2022/03/23 04:25:08;;;;;;;19.02;9.55;;;5.00;91.30;;;;;;5014524;28;20120;-76
2022/03/23 04:27:43;;;;;;;15.43;8.85;;;5.10;91.30;;;;;;5014212;28;20065;-72
2022/03/23 04:30:10;;;;;;;16.13;9.27;;;4.90;91.30;;;;;;5013598;28;20052;-77
2022/03/23 04:32:35;;;;;;;14.60;9.30;;;4.80;91.70;;;;;;5014227;28;20041;-77
2022/03/23 04:35:01;;;;;;;19.15;9.68;;;4.60;91.80;;;;;;5014241;28;20076;-76
2022/03/23 04:37:27;;;;;;;19.30;9.80;;;4.90;91.40;;;;;;5014145;28;20056;-77
2022/03/23 04:39:53;;;;;;;16.40;10.10;;;5.10;91.10;;;;;;5014117;28;20034;-74
2022/03/23 04:42:18;;;;;;;16.20;9.40;;;5.10;91.00;;;;;;5032894;28;20057;-74
2022/03/23 04:44:44;;;;;;;17.10;8.50;;;5.00;91.20;;;;;;5033719;28;20121;-77
2022/03/23 04:47:10;;;;;;;19.08;8.82;;;4.80;91.20;;;;;;5033630;28;20042;-77
2022/03/23 04:49:36;;;;;;;16.40;8.68;;;4.80;91.20;;;;;;5047848;28;20528;-77
2022/03/23 04:52:01;;;;;;;15.55;9.27;;;5.00;91.10;;;;;;5053370;28;20048;-76
2022/03/23 04:54:27;;;;;;;17.60;9.95;;;5.00;90.80;;;;;;5053283;28;20040;-78
2022/03/23 04:56:53;;;;;;;17.77;10.23;;;5.00;91.00;;;;;;5053326;28;20033;-77
2022/03/23 04:59:19;;;;;;;19.42;10.98;;;4.90;91.60;;;;;;5053443;28;20052;-77
2022/03/23 05:01:45;;;;;;;16.50;10.70;;;4.70;92.00;;;;;;5052915;28;20041;-76
2022/03/23 05:04:10;;;;;;;17.55;8.88;;;4.80;91.40;;;;;;5052919;28;20047;-77
2022/03/23 05:06:36;;;;;;;15.00;9.70;;;4.90;91.90;;;;;;5053331;28;20112;-73
2022/03/23 05:09:02;;;;;;;14.35;9.40;;;5.10;91.60;;;;;;5053353;28;20123;-75
2022/03/23 05:11:28;;;;;;;16.10;9.50;;;5.00;92.20;;;;;;5053065;28;20037;-76
2022/03/23 05:13:53;;;;;;;14.73;9.40;;;4.90;92.60;;;;;;5052806;28;20052;-76
2022/03/23 05:16:19;;;;;;;15.85;10.43;;;5.00;92.60;;;;;;5053163;28;20037;-76
2022/03/23 05:18:45;;;;;;;17.65;11.40;;;4.80;92.60;;;;;;5018916;28;20091;-76
2022/03/23 05:21:11;;;;;;;20.55;11.50;;;4.30;92.90;;;;;;5031030;28;20550;-76
2022/03/23 05:23:37;;;;;;;34.05;11.65;;;4.20;93.30;;;;;;5031023;28;20124;-77
2022/03/23 05:26:03;;;;;;;20.27;10.57;;;4.10;93.40;;;;;;5031505;28;20048;-70
2022/03/23 05:28:29;;;;;;;17.65;10.80;;;4.10;93.10;;;;;;5032856;28;20048;-71
2022/03/23 05:30:55;;;;;;;16.15;9.55;;;4.10;93.00;;;;;;5032993;28;20105;-77
2022/03/23 05:33:20;;;;;;;13.40;8.88;;;4.20;93.00;;;;;;5032887;28;20505;-74
2022/03/23 05:35:46;;;;;;;17.95;9.93;;;4.10;93.70;;;;;;5032946;28;20443;-75
2022/03/23 05:38:12;;;;;;;15.52;8.75;;;4.10;93.50;;;;;;5035302;28;20048;-76
2022/03/23 05:40:38;;;;;;;18.05;8.65;;;4.00;93.20;;;;;;5032903;28;20120;-77
2022/03/23 05:43:03;;;;;;;13.05;9.00;;;4.10;93.10;;;;;;5032527;28;20067;-74
2022/03/23 05:45:29;;;;;;;12.95;8.68;;;4.10;92.90;;;;;;5032650;28;20044;-76
2022/03/23 05:47:56;;;;;;;18.35;8.38;;;4.10;92.80;;;;;;5032338;28;20041;-77
2022/03/23 05:50:22;;;;;;;13.55;8.68;;;4.20;92.80;;;;;;5032768;28;20038;-75
2022/03/23 05:52:48;;;;;;;15.13;8.98;;;4.30;92.60;;;;;;5032940;28;20107;-72
2022/03/23 05:55:14;;;;;;;19.55;9.77;;;4.40;92.50;;;;;;5032907;28;20044;-77
2022/03/23 05:57:39;;;;;;;16.38;8.95;;;4.30;92.60;;;;;;5032993;28;20060;-76
2022/03/23 06:00:08;;;;;;;14.95;9.10;;;4.30;92.50;;;;;;5032753;28;20087;-77
2022/03/23 06:02:34;;;;;;;15.18;10.13;;;4.30;92.40;;;;;;5032544;28;20429;-75
2022/03/23 06:05:00;;;;;;;16.60;9.45;;;4.30;92.20;;;;;;5032554;28;20060;-76
2022/03/23 06:07:25;;;;;;;21.10;9.95;;;4.20;92.30;;;;;;5032418;28;20396;-77
2022/03/23 06:09:51;;;;;;;17.75;10.57;;;4.20;92.40;;;;;;5032380;28;20029;-74
2022/03/23 06:12:17;;;;;;;19.55;9.32;;;4.30;92.40;;;;;;5032543;28;20129;-71
2022/03/23 06:14:43;;;;;;;15.15;8.88;;;4.40;92.40;;;;;;5032552;28;20037;-76
2022/03/23 06:17:10;;;;;;;14.52;8.98;;;4.40;92.20;;;;;;5032634;28;20045;-76
2022/03/23 06:19:36;;;;;;;17.42;9.65;;;4.50;92.20;;;;;;5032705;28;20048;-76
2022/03/23 06:22:03;;;;;;;15.77;8.45;;;4.50;92.20;;;;;;5032438;28;20111;-77
2022/03/23 06:24:29;;;;;;;14.77;8.60;;;4.50;92.40;;;;;;5031924;28;20485;-76
2022/03/23 06:26:55;;;;;;;17.70;9.07;;;4.50;92.30;;;;;;5032147;28;20065;-77
2022/03/23 06:29:21;;;;;;;14.52;8.15;;;4.70;92.20;;;;;;5032415;28;20436;-77
2022/03/23 06:31:46;;;;;;;15.23;9.10;;;4.70;92.20;;;;;;5031899;28;20071;-70
2022/03/23 06:34:12;;;;;;;16.42;8.95;;;4.90;92.10;;;;;;5031629;28;20416;-71
2022/03/23 06:36:38;;;;;;;12.70;8.98;;;4.90;92.30;;;;;;5031733;28;20722;-71
2022/03/23 06:39:05;;;;;;;17.13;10.30;;;4.70;92.50;;;;;;5031271;28;20493;-76
2022/03/23 06:41:31;;;;;;;17.10;9.48;;;4.60;92.80;;;;;;5032266;28;20059;-77
2022/03/23 06:43:57;;;;;;;16.55;9.50;;;4.70;93.00;;;;;;5032353;28;20037;-73
2022/03/23 06:46:23;;;;;;;19.67;10.88;;;4.80;92.90;;;;;;5032263;28;20125;-77
2022/03/23 06:48:49;;;;;;;19.02;10.18;;;5.00;92.90;;;;;;5040157;28;20045;-77
2022/03/23 06:51:15;;;;;;;24.65;9.63;;;5.30;92.60;;;;;;5052229;28;20566;-77
2022/03/23 06:53:42;;;;;;;16.63;9.00;;;5.60;92.30;;;;;;5055691;28;20029;-76
2022/03/23 06:56:08;;;;;;;17.55;8.95;;;6.00;92.00;;;;;;5055863;28;20504;-77
2022/03/23 06:58:34;;;;;;;17.88;9.43;;;6.50;91.90;;;;;;5055652;28;20041;-77
2022/03/23 07:01:00;;;;;;;22.70;8.68;;;7.10;91.20;;;;;;5055536;28;20051;-77
2022/03/23 07:03:27;;;;;;;23.05;11.75;;;7.50;91.30;;;;;;5055426;28;20048;-77
2022/03/23 07:05:53;;;;;;;24.38;13.30;;;7.90;91.00;;;;;;5055505;28;20041;-75
2022/03/23 07:11:04;;;;;;;17.80;9.70;;;8.30;90.60;;;;;;5055604;28;20117;-77
2022/03/23 07:13:30;;;;;;;12.30;8.13;;;7.90;89.80;;;;;;5055514;28;20091;-75
2022/03/23 07:15:56;;;;;;;20.48;8.80;;;7.70;90.10;;;;;;5055481;28;20067;-72
2022/03/23 07:18:22;;;;;;;12.43;7.95;;;7.70;90.30;;;;;;5055277;28;20552;-77
2022/03/23 07:20:47;;;;;;;17.42;8.80;;;7.70;90.20;;;;;;5055380;28;20455;-77
2022/03/23 07:23:13;;;;;;;18.88;10.18;;;7.90;90.50;;;;;;5055313;28;20501;-78
2022/03/23 07:25:39;;;;;;;21.02;9.88;;;8.20;90.20;;;;;;5050629;28;20037;-79
2022/03/23 07:28:05;;;;;;;15.30;9.15;;;9.10;90.00;;;;;;5048276;28;20052;-78
2022/03/23 07:30:33;;;;;;;16.08;9.40;;;9.50;88.10;;;;;;5054990;28;20044;-78
2022/03/23 07:33:00;;;;;;;23.17;11.70;;;9.70;87.30;;;;;;5054652;28;20134;-80
2022/03/23 07:35:26;;;;;;;18.13;11.60;;;9.80;91.60;;;;;;5054865;28;20037;-79
2022/03/23 07:37:52;;;;;;;19.55;10.88;;;9.70;90.50;;;;;;5055129;28;20582;-72
2022/03/23 07:40:18;;;;;;;21.95;11.63;;;9.70;90.40;;;;;;5055100;28;20040;-77
2022/03/23 07:42:44;;;;;;;22.33;10.93;;;9.90;90.70;;;;;;5055040;28;20052;-69
2022/03/23 07:45:11;;;;;;;21.83;10.77;;;10.20;90.90;;;;;;5054990;28;20037;-70
2022/03/23 07:47:37;;;;;;;16.88;8.85;;;10.50;91.00;;;;;;5054693;28;20041;-73
2022/03/23 07:50:03;;;;;;;15.73;9.07;;;10.60;87.50;;;;;;5036785;28;20124;-78
2022/03/23 07:52:30;;;;;;;13.82;8.23;;;10.70;91.40;;;;;;5054686;28;20144;-80
2022/03/23 07:54:56;;;;;;;14.90;8.00;;;10.80;88.50;;;;;;5054776;28;20120;-76
2022/03/23 07:57:22;;;;;;;16.25;8.07;;;11.10;87.50;;;;;;5036343;28;20045;-71
2022/03/23 07:59:48;;;;;;;19.88;9.05;;;11.20;88.30;;;;;;5054398;28;20033;-79
2022/03/23 08:02:14;;;;;;;15.82;9.48;;;11.50;88.50;;;;;;5054546;28;20107;-79
2022/03/23 08:04:39;;;;;;;23.38;10.57;;;11.50;88.50;;;;;;5047131;28;20055;-79
2022/03/23 08:07:07;;;;;;;16.40;10.93;;;11.40;90.70;;;;;;5045679;28;20032;-79
2022/03/23 08:09:33;;;;;;;19.35;11.25;;;11.40;91.80;;;;;;5054800;28;20029;-80
2022/03/23 08:11:59;;;;;;;18.05;11.13;;;11.20;91.30;;;;;;5053813;28;20124;-80
2022/03/23 08:14:25;;;;;;;18.65;10.38;;;11.40;92.00;;;;;;5046579;28;20436;-77
2022/03/23 08:16:52;;;;;;;17.83;10.43;;;11.30;92.20;;;;;;5053237;28;20055;-79
2022/03/23 08:19:20;;;;;;;15.45;10.43;;;11.40;92.20;;;;;;5054226;28;20120;-73
2022/03/23 08:21:46;;;;;;;16.73;9.90;;;11.50;92.00;;;;;;5054178;28;20130;-76
2022/03/23 08:24:12;;;;;;;17.58;9.57;;;11.50;91.80;;;;;;5053869;28;20053;-73
2022/03/23 08:26:38;;;;;;;16.83;9.30;;;11.80;91.60;;;;;;5043060;28;20060;-72
2022/03/23 08:29:03;;;;;;;33.15;19.52;;;12.20;91.50;;;;;;5033829;28;20099;-78
2022/03/23 08:31:29;;;;;;;33.45;16.38;;;12.00;91.70;;;;;;5033713;28;20046;-77
2022/03/23 08:33:55;;;;;;;25.85;13.73;;;12.10;90.60;;;;;;5034052;28;20122;-78
2022/03/23 08:36:21;;;;;;;19.65;12.25;;;12.10;88.90;;;;;;5034118;28;20043;-75
2022/03/23 08:38:47;;;;;;;15.43;8.38;;;12.40;90.40;;;;;;5034051;28;20567;-79
2022/03/23 08:41:13;;;;;;;20.10;9.00;;;12.50;88.50;;;;;;5034030;28;20077;-78
2022/03/23 08:43:41;;;;;;;26.77;14.10;;;12.50;89.00;;;;;;5033811;28;20405;-79
2022/03/23 08:46:08;;;;;;;12.90;8.32;;;12.40;89.70;;;;;;5033843;28;20123;-72
2022/03/23 08:48:34;;;;;;;37.13;16.77;;;12.50;88.90;;;;;;5033690;28;20052;-79
2022/03/23 08:51:01;;;;;;;22.92;9.13;;;12.50;88.00;;;;;;5033761;28;20099;-78
2022/03/23 08:53:26;;;;;;;15.63;7.75;;;12.40;87.00;;;;;;5032978;28;20590;-73
2022/03/23 08:55:53;;;;;;;17.88;8.23;;;12.50;86.90;;;;;;5033579;28;20045;-79
2022/03/23 08:58:19;;;;;;;14.13;8.27;;;12.60;87.10;;;;;;5033526;28;20098;-79
2022/03/23 09:00:45;;;;;;;11.68;7.95;;;12.90;87.00;;;;;;5033478;28;20413;-79
2022/03/23 09:03:10;;;;;;;18.00;9.35;;;12.70;86.20;;;;;;5033668;28;20053;-79
2022/03/23 09:05:37;;;;;;;21.50;11.50;;;13.10;89.30;;;;;;5032387;28;20769;-79
2022/03/23 09:08:03;;;;;;;21.90;11.70;;;13.00;87.00;;;;;;5033454;28;20404;-72
2022/03/23 09:10:29;;;;;;;27.35;12.48;;;13.20;87.10;;;;;;5033510;28;20033;-79
2022/03/23 09:12:54;;;;;;;23.30;10.45;;;13.20;86.50;;;;;;5033316;28;20451;-79
2022/03/23 09:15:20;;;;;;;14.80;8.52;;;13.30;87.50;;;;;;5032662;28;20041;-79
2022/03/23 09:17:47;;;;;;;18.50;9.23;;;13.30;85.00;;;;;;5033542;28;20072;-74
2022/03/23 09:20:13;;;;;;;23.00;9.68;;;13.30;86.50;;;;;;5032657;28;20037;-79
2022/03/23 09:22:40;;;;;;;27.95;12.73;;;13.20;87.50;;;;;;5035507;28;20049;-79
2022/03/23 09:25:09;;;;;;;17.17;7.85;;;13.20;84.20;;;;;;5029349;28;20120;-77
2022/03/23 09:27:40;;;;;;;17.45;7.82;;;13.70;83.20;;;;;;5031730;28;20375;-75
2022/03/23 09:30:07;;;;;;;13.55;7.35;;;13.60;83.10;;;;;;5015505;28;20037;-77
2022/03/23 09:32:33;;;;;;;13.38;6.90;;;13.20;81.70;;;;;;5033178;28;20033;-78
2022/03/23 09:35:00;;;;;;;31.63;13.65;;;13.20;80.80;;;;;;5033139;28;20048;-77
2022/03/23 09:40:11;;;;;;;20.90;9.70;;;13.00;81.70;;;;;;5033043;28;20492;-79
2022/03/23 09:42:39;;;;;;;17.08;7.13;;;13.30;81.00;;;;;;5032750;28;20128;-78
2022/03/23 09:45:06;;;;;;;33.83;16.55;;;13.30;80.20;;;;;;5033091;28;20107;-78
2022/03/23 09:47:32;;;;;;;22.05;12.32;;;13.50;82.60;;;;;;5032966;28;20061;-78
2022/03/23 09:49:58;;;;;;;17.38;7.78;;;13.30;81.30;;;;;;5032806;28;20505;-80
2022/03/23 09:52:23;;;;;;;15.75;9.50;;;13.40;81.70;;;;;;5032827;28;20041;-80
2022/03/23 09:54:49;;;;;;;12.65;7.65;;;13.40;83.20;;;;;;5032849;28;20040;-75
2022/03/23 09:57:15;;;;;;;18.30;8.77;;;13.20;80.40;;;;;;5014930;28;20444;-74
2022/03/23 09:59:42;;;;;;;14.07;7.47;;;13.50;83.20;;;;;;5032608;28;20064;-77
2022/03/23 10:02:32;;;;;;;16.25;8.48;;;14.10;83.60;;;;;;5032783;28;20523;-75
2022/03/23 10:05:22;;;;;;;17.30;11.80;;;13.70;81.20;;;;;;5032854;28;20120;-75
2022/03/23 10:08:13;;;;;;;16.80;9.82;;;13.60;82.70;;;;;;5032774;28;20515;-76
2022/03/23 10:11:15;;;;;;;16.50;9.57;;;13.80;82.30;;;;;;5032838;28;20041;-79
2022/03/23 10:13:50;;;;;;;18.52;9.60;;;13.70;82.30;;;;;;5029982;28;20069;-78
2022/03/23 10:16:43;;;;;;;19.85;11.32;;;13.80;81.20;;;;;;5030588;28;20045;-72
2022/03/23 10:19:09;;;;;;;20.95;9.20;;;14.00;82.00;;;;;;5030707;28;20038;-76
2022/03/23 10:21:37;;;;;;;16.50;9.82;;;14.20;80.70;;;;;;5029863;28;20075;-71
2022/03/23 10:24:03;;;;;;;14.55;8.82;;;14.10;81.70;;;;;;5030282;28;20044;-73
2022/03/23 10:26:31;;;;;;;21.20;9.65;;;14.00;80.00;;;;;;5030773;28;20041;-77
2022/03/23 10:28:59;;;;;;;16.13;9.00;;;14.30;82.70;;;;;;5033637;28;20132;-71
2022/03/23 10:31:27;;;;;;;15.07;8.95;;;14.60;81.30;;;;;;5034177;28;20037;-71
2022/03/23 10:33:59;;;;;;;15.93;8.52;;;14.50;79.50;;;;;;5036685;28;20216;-77
2022/03/23 10:36:27;;;;;;;13.57;7.70;;;14.60;79.90;;;;;;5034455;28;20044;-70
2022/03/23 10:39:03;;;;;;;15.45;9.60;;;14.90;82.20;;;;;;5033121;28;20540;-71
2022/03/23 10:41:30;;;;;;;12.15;8.25;;;14.00;78.80;;;;;;5034226;28;20068;-75
2022/03/23 10:43:56;;;;;;;12.35;8.10;;;13.90;78.90;;;;;;5032253;28;20068;-75
2022/03/23 10:46:23;;;;;;;17.33;7.50;;;14.20;81.30;;;;;;5033852;28;20041;-74
2022/03/23 10:49:03;;;;;;;13.20;8.30;;;14.10;78.50;;;;;;5033488;28;20503;-75
2022/03/23 10:51:32;;;;;;;21.25;8.45;;;14.70;80.00;;;;;;5034420;28;20048;-72
2022/03/23 10:53:59;;;;;;;17.25;7.95;;;14.70;79.60;;;;;;5034032;28;20069;-74
2022/03/23 10:56:30;;;;;;;15.32;8.32;;;14.40;78.10;;;;;;5033976;28;20037;-74
2022/03/23 10:59:22;;;;;;;17.67;9.00;;;14.60;79.20;;;;;;5033227;28;20045;-77
2022/03/23 11:02:10;;;;;;;16.30;8.98;;;15.00;79.70;;;;;;5033221;28;20033;-79
2022/03/23 11:04:57;;;;;;;19.58;8.90;;;15.00;75.70;;;;;;5033058;28;20068;-76
2022/03/23 11:07:31;;;;;;;15.18;9.55;;;15.00;75.40;;;;;;5033869;28;20047;-77
2022/03/23 11:15:46;;;;;;;17.33;10.50;;;14.50;76.30;;;;;;5045300;28;20040;-75
2022/03/23 11:18:15;;;;;;;18.92;11.15;;;14.80;79.50;;;;;;5055448;28;20072;-74
2022/03/23 11:20:53;;;;;;;17.65;10.63;;;14.80;75.10;;;;;;5055419;28;20097;-74
2022/03/23 11:23:36;;;;;;;14.80;10.00;;;14.30;72.50;;;;;;5055267;28;20075;-74
2022/03/23 11:26:11;;;;;;;17.55;10.50;;;14.60;72.60;;;;;;5055225;28;20072;-73
2022/03/23 11:28:40;;;;;;;16.75;9.85;;;14.20;71.50;;;;;;5055172;28;20044;-72
2022/03/23 11:31:08;;;;;;;18.63;10.77;;;14.50;73.80;;;;;;5055064;28;20645;-74
2022/03/23 11:33:34;;;;;;;15.32;9.93;;;14.60;75.80;;;;;;5054649;28;20052;-74
2022/03/23 11:36:03;;;;;;;18.00;10.68;;;14.90;73.30;;;;;;5054997;28;20098;-72
2022/03/23 11:38:30;;;;;;;15.35;10.30;;;14.70;72.50;;;;;;5054554;28;20097;-71
2022/03/23 11:40:57;;;;;;;17.50;10.48;;;14.70;74.70;;;;;;5054423;28;20067;-72
2022/03/23 11:43:25;;;;;;;15.95;10.07;;;14.80;74.10;;;;;;5054587;28;20052;-71
2022/03/23 11:45:53;;;;;;;18.50;10.45;;;14.90;73.30;;;;;;5053389;28;20068;-73
2022/03/23 11:48:30;;;;;;;18.40;10.15;;;15.00;72.50;;;;;;5054799;28;20033;-72
2022/03/23 11:51:28;;;;;;;19.02;10.68;;;14.60;70.90;;;;;;5042600;28;20037;-75
2022/03/23 11:54:06;;;;;;;49.72;24.73;;;14.80;74.70;;;;;;5034547;28;20505;-74
2022/03/23 11:56:55;;;;;;;20.02;10.77;;;14.90;72.50;;;;;;5034632;28;20125;-73
2022/03/23 11:59:25;;;;;;;26.83;11.50;;;15.00;72.10;;;;;;5034487;28;20095;-73
2022/03/23 12:01:53;;;;;;;17.17;10.60;;;15.20;74.70;;;;;;5034573;28;20405;-71
2022/03/23 12:04:26;;;;;;;18.27;11.82;;;15.20;70.90;;;;;;5033402;28;20167;-73
2022/03/23 12:07:06;;;;;;;20.80;11.90;;;14.70;68.90;;;;;;5033729;28;20147;-75
2022/03/23 12:09:40;;;;;;;18.15;10.93;;;15.10;71.40;;;;;;5032520;28;20052;-73
2022/03/23 12:12:28;;;;;;;18.02;10.35;;;14.70;69.10;;;;;;5032086;28;20045;-72
2022/03/23 12:15:23;;;;;;;19.95;10.77;;;14.90;69.00;;;;;;5032118;28;20033;-72
2022/03/23 12:17:58;;;;;;;16.70;10.27;;;15.30;67.60;;;;;;5006622;28;20041;-72
2022/03/23 12:20:37;;;;;;;17.67;10.35;;;15.00;66.80;;;;;;5032994;28;20129;-73
2022/03/23 12:23:15;;;;;;;19.17;11.02;;;14.90;67.30;;;;;;5032032;28;20059;-73
2022/03/23 12:26:01;;;;;;;19.60;10.35;;;14.90;66.00;;;;;;5034051;28;20040;-76
2022/03/23 12:28:27;;;;;;;15.10;10.15;;;15.10;65.10;;;;;;5032760;28;20037;-76
2022/03/23 12:30:55;;;;;;;22.02;11.75;;;14.80;64.30;;;;;;5033959;28;20495;-73
2022/03/23 12:33:22;;;;;;;18.15;10.93;;;14.70;62.90;;;;;;5033590;28;20044;-76
2022/03/23 12:35:49;;;;;;;15.70;9.30;;;14.70;61.70;;;;;;5039218;28;20091;-75
2022/03/23 12:38:22;;;;;;;18.33;10.68;;;14.70;63.70;;;;;;5049948;28;20059;-72
2022/03/23 12:40:49;;;;;;;15.70;9.50;;;15.00;64.70;;;;;;5053553;28;20098;-75
2022/03/23 12:43:35;;;;;;;18.00;9.88;;;15.10;63.90;;;;;;5044134;28;20057;-76
2022/03/23 12:46:01;;;;;;;15.55;10.48;;;14.80;63.60;;;;;;5025463;28;20044;-75
2022/03/23 12:59:36;;;;;;;16.40;10.02;;;14.90;60.10;;;;;;5051333;28;20040;-74
2022/03/23 13:02:17;;;;;;;16.98;10.75;;;14.90;61.60;;;;;;5042115;28;20409;-79
2022/03/23 13:04:42;;;;;;;15.30;9.40;;;14.80;62.50;;;;;;5030997;28;20049;-82
2022/03/23 13:07:27;;;;;;;17.95;11.43;;;15.00;62.20;;;;;;5031068;28;20046;-72
2022/03/23 13:09:56;;;;;;;16.65;10.15;;;15.30;63.50;;;;;;5030821;28;20831;-76
2022/03/23 13:12:27;;;;;;;13.05;9.07;;;15.10;61.30;;;;;;5033577;28;20041;-76
2022/03/23 13:14:53;;;;;;;13.20;9.13;;;14.90;66.50;;;;;;5050817;28;20401;-72
2022/03/23 13:17:20;;;;;;;15.68;10.13;;;15.30;63.20;;;;;;5050681;28;20032;-73